Ana Sayfa
METAR-TAF:

METAR-TAF

Havaalanları :

Richmond International Airport

Richmond, Virginia, Amerika Birleşik Devletleri

Enlem: 37-30-40N, Boylam: 077-19-24W, yükseklik: 51 m

Güncel hava durumu gözlemi

Rapor saat 13:54 UTC de 15 dakika önce yapıldı.
Rüzgar kuzeydan 6 kt
Sıcaklık 19°C
Nem 64%
Basınç 1020 hPa
Görüş mesafesi: 16.1 km
Açık gökyüzü

METAR: KRIC 241354Z 01006KT 10SM CLR 19/12 A3012 RMK AO2 SLP205 T01940117

Saat: 10:09 (14:09 UTC)

Tahmin

Rapor saat 11:20 UTC de 2 saat ve 49 dakika önce yapıldı.
Ayın 24'si saat 12 UTC'den ayın 25'si saat 12 UTC'ye kadar geçerli Tahmin
Rüzgar kuzey/kuzeybatıdan 5 kt
Görüş mesafesi: 10 km
5000 ft yükseklikte parçalı bulutlu
Ayın 24'si saat 1400 UTC'den
Rüzgar kuzeydan 7 kt
Görüş mesafesi: 10 km
Açık gökyüzü
Ayın 25'si saat 0000 UTC'den
Rüzgar değişken yönden 3 kt
Görüş mesafesi: 10 km
Açık gökyüzü

TAF: KRIC 241120Z 2412/2512 34005KT P6SM SCT050 FM241400 01007KT P6SM SKC FM250000 VRB03KT P6SM SKC

4.000'den fazla havaalanı için hava durumu gözlemleri ve tahminleri (METAR ve TAF raporları).

Kullanılabilir istasyonlar harita üzerinde sarı ve kırmızı noktalarla gösterilir.

İstasyonun adını görmek için fareyi noktanın üzerinde gezdirin.

Sonrasında hava gözlem ve tahminlerini görmek için tıklayın.

Haritayı değiştirmek için: yaklaştırmak için siyah artı işaretli yeşil düğmeye ve uzaklaştırmak için de eksi işaretli düğmeye hızla tıklayın; bitişik haritalar için yeşil okları kullanın.


METAR-TAF: